createdAt,value
2018-08-07T00:00:37.093Z,1002.17
2018-08-07T00:01:17.495Z,1002.19
2018-08-07T00:01:57.910Z,1002.21
2018-08-07T00:02:38.371Z,1002.2
2018-08-07T00:03:18.805Z,1002.21
2018-08-07T00:03:59.186Z,1002.2
2018-08-07T00:04:39.769Z,1002.17
2018-08-07T00:05:20.191Z,1002.16
2018-08-07T00:06:00.606Z,1002.21
2018-08-07T00:06:40.923Z,1002.16
2018-08-07T00:07:21.332Z,1002.13
2018-08-07T00:08:01.833Z,1002.13
2018-08-07T00:08:42.338Z,1002.1
2018-08-07T00:09:22.869Z,1002.16
2018-08-07T00:10:03.199Z,1002.12
2018-08-07T00:10:43.627Z,1002.13
2018-08-07T00:11:24.046Z,1002.12
2018-08-07T00:12:04.403Z,1002.13
2018-08-07T00:12:44.850Z,1002.09
2018-08-07T00:13:25.296Z,1002.09
2018-08-07T00:14:05.763Z,1002.12
2018-08-07T00:14:46.095Z,1002.14
2018-08-07T00:15:26.687Z,1002.13
2018-08-07T00:16:07.006Z,1002.11
2018-08-07T00:16:47.376Z,1002.11
2018-08-07T00:17:27.907Z,1002.1
2018-08-07T00:18:08.322Z,1002.11
2018-08-07T00:18:48.697Z,1002.09
2018-08-07T00:19:29.037Z,1002.08
2018-08-07T00:20:09.561Z,1002.05
2018-08-07T00:20:49.952Z,1002.09
2018-08-07T00:21:30.292Z,1002.08
2018-08-07T00:22:10.667Z,1002.04
2018-08-07T00:22:51.146Z,1002.02
2018-08-07T00:23:31.523Z,1002.04
2018-08-07T00:24:12.117Z,1002.02
2018-08-07T00:24:52.409Z,1002.02
2018-08-07T00:25:32.831Z,1001.99
2018-08-07T00:26:13.174Z,1002.02
2018-08-07T00:26:53.606Z,1001.99
2018-08-07T00:27:33.990Z,1002
2018-08-07T00:28:14.350Z,1001.99
2018-08-07T00:28:54.833Z,1001.96
2018-08-07T00:29:35.165Z,1001.95
2018-08-07T00:30:15.753Z,1001.96
2018-08-07T00:30:56.019Z,1001.94
2018-08-07T00:31:36.506Z,1001.96
2018-08-07T00:32:16.816Z,1001.95
2018-08-07T00:32:57.283Z,1001.93
2018-08-07T00:33:37.710Z,1001.94
2018-08-07T00:34:18.045Z,1001.97
2018-08-07T00:34:58.401Z,1001.96
2018-08-07T00:35:38.816Z,1001.92
2018-08-07T00:36:19.192Z,1001.93
2018-08-07T00:36:59.667Z,1001.94
2018-08-07T00:37:40.065Z,1001.94
2018-08-07T00:38:20.449Z,1001.9
2018-08-07T00:39:00.968Z,1001.92
2018-08-07T00:39:41.282Z,1001.91
2018-08-07T00:40:21.719Z,1001.91
2018-08-07T00:41:02.191Z,1001.91
2018-08-07T00:41:42.522Z,1001.88
2018-08-07T00:42:22.979Z,1001.9
2018-08-07T00:43:03.372Z,1001.87
2018-08-07T00:43:43.743Z,1001.88
2018-08-07T00:44:24.190Z,1001.92
2018-08-07T00:45:04.644Z,1001.9
2018-08-07T00:45:45.049Z,1001.89
2018-08-07T00:46:25.484Z,1001.87
2018-08-07T00:47:05.822Z,1001.87
2018-08-07T00:47:46.262Z,1001.86
2018-08-07T00:48:26.638Z,1001.91
2018-08-07T00:49:07.036Z,1001.87
2018-08-07T00:49:47.463Z,1001.86
2018-08-07T00:50:27.928Z,1001.86
2018-08-07T00:51:08.267Z,1001.84
2018-08-07T00:51:48.712Z,1001.85
2018-08-07T00:52:29.064Z,1001.84
2018-08-07T00:54:47.084Z,1001.86
2018-08-07T00:55:27.258Z,1001.85
2018-08-07T00:56:07.621Z,1001.88
2018-08-07T00:56:48.009Z,1001.88
2018-08-07T00:57:28.431Z,1001.8
2018-08-07T00:58:08.855Z,1001.81
2018-08-07T00:58:49.262Z,1001.84
2018-08-07T01:01:09.413Z,1001.82
2018-08-07T01:01:49.816Z,1001.81
2018-08-07T01:02:30.201Z,1001.86
2018-08-07T01:03:10.984Z,1001.86
2018-08-07T01:11:11.496Z,1001.8
2018-08-07T01:11:52.193Z,1001.79
2018-08-07T01:12:32.946Z,1001.79
2018-08-07T01:13:13.375Z,1001.81
2018-08-07T01:13:53.835Z,1001.8
2018-08-07T01:14:34.198Z,1001.82
2018-08-07T01:16:19.330Z,1001.79
2018-08-07T01:16:59.582Z,1001.76
2018-08-07T01:17:39.993Z,1001.73
2018-08-07T01:18:20.525Z,1001.73
2018-08-07T01:19:00.817Z,1001.75
2018-08-07T01:19:41.210Z,1001.78
2018-08-07T01:20:21.619Z,1001.75
2018-08-07T01:21:02.017Z,1001.75
2018-08-07T01:21:42.396Z,1001.74
2018-08-07T01:23:39.261Z,1001.72
2018-08-07T01:24:19.505Z,1001.7
2018-08-07T01:24:59.998Z,1001.69
2018-08-07T01:25:40.373Z,1001.7
2018-08-07T01:26:20.904Z,1001.66
2018-08-07T01:27:03.183Z,1001.68
2018-08-07T01:31:01.476Z,1001.67
2018-08-07T01:31:41.403Z,1001.65
2018-08-07T01:32:21.817Z,1001.62
2018-08-07T01:33:02.164Z,1001.61
2018-08-07T01:33:42.576Z,1001.58
2018-08-07T01:34:23.008Z,1001.59
2018-08-07T01:35:03.411Z,1001.63
2018-08-07T01:35:43.792Z,1001.62
2018-08-07T01:36:24.166Z,1001.63
2018-08-07T01:37:04.645Z,1001.65
2018-08-07T01:37:45.109Z,1001.64
2018-08-07T01:38:25.542Z,1001.64
2018-08-07T01:39:05.956Z,1001.63
2018-08-07T01:39:47.239Z,1001.67
2018-08-07T01:40:29.021Z,1001.64
2018-08-07T01:41:09.393Z,1001.66
2018-08-07T01:41:49.882Z,1001.68
2018-08-07T01:42:30.277Z,1001.65
2018-08-07T01:43:10.693Z,1001.61
2018-08-07T01:43:51.375Z,1001.64
2018-08-07T01:44:31.759Z,1001.61
2018-08-07T01:48:52.642Z,1001.58
2018-08-07T01:49:33.019Z,1001.57
2018-08-07T01:50:13.408Z,1001.59
2018-08-07T01:50:53.838Z,1001.58
2018-08-07T01:51:34.162Z,1001.57
2018-08-07T01:52:14.652Z,1001.54
2018-08-07T01:52:55.017Z,1001.51
2018-08-07T01:53:35.376Z,1001.53
2018-08-07T01:54:15.780Z,1001.55
2018-08-07T01:54:56.243Z,1001.54
2018-08-07T01:55:36.607Z,1001.55
2018-08-07T01:56:17.000Z,1001.53
2018-08-07T01:56:57.383Z,1001.56
2018-08-07T01:57:37.753Z,1001.52
2018-08-07T01:58:18.163Z,1001.56
2018-08-07T01:58:58.542Z,1001.56
2018-08-07T01:59:38.962Z,1001.52
2018-08-07T02:00:19.373Z,1001.55
2018-08-07T02:00:59.779Z,1001.57
2018-08-07T02:01:40.179Z,1001.61
2018-08-07T02:05:17.698Z,1001.54
2018-08-07T02:17:52.427Z,1001.53
2018-08-07T02:19:46.161Z,1001.5
2018-08-07T02:21:42.864Z,1001.45
2018-08-07T02:22:23.982Z,1001.44
2018-08-07T02:23:04.325Z,1001.41
2018-08-07T02:23:44.739Z,1001.43
2018-08-07T02:24:25.209Z,1001.39
2018-08-07T02:25:05.670Z,1001.39
2018-08-07T02:25:46.050Z,1001.4
2018-08-07T02:26:26.485Z,1001.39
2018-08-07T02:27:07.368Z,1001.39
2018-08-07T02:27:48.818Z,1001.42
2018-08-07T02:28:29.238Z,1001.42
2018-08-07T02:29:10.824Z,1001.42
2018-08-07T02:40:47.576Z,1001.38
2018-08-07T02:41:28.719Z,1001.4
2018-08-07T02:42:09.130Z,1001.39
2018-08-07T02:42:49.540Z,1001.38
2018-08-07T02:43:29.980Z,1001.37
2018-08-07T02:44:10.677Z,1001.4
2018-08-07T02:44:51.083Z,1001.43
2018-08-07T02:45:36.101Z,1001.4
2018-08-07T02:46:16.486Z,1001.41
2018-08-07T02:46:57.140Z,1001.42
2018-08-07T02:47:37.771Z,1001.42
2018-08-07T02:48:18.744Z,1001.39
2018-08-07T02:48:59.116Z,1001.39
2018-08-07T02:49:39.505Z,1001.35
2018-08-07T02:50:19.922Z,1001.34
2018-08-07T02:51:00.630Z,1001.36
2018-08-07T02:51:40.843Z,1001.42
2018-08-07T02:52:21.198Z,1001.37
2018-08-07T02:53:01.547Z,1001.41
2018-08-07T02:53:41.967Z,1001.4
2018-08-07T02:54:22.343Z,1001.41
2018-08-07T03:04:31.628Z,1001.38
2018-08-07T03:05:10.976Z,1001.37
2018-08-07T03:05:51.375Z,1001.35
2018-08-07T03:06:33.554Z,1001.33
2018-08-07T03:07:13.952Z,1001.35
2018-08-07T03:07:54.308Z,1001.35
2018-08-07T03:08:34.748Z,1001.36
2018-08-07T03:09:15.182Z,1001.41
2018-08-07T03:09:55.551Z,1001.39
2018-08-07T03:10:35.993Z,1001.4
2018-08-07T03:14:11.613Z,1001.36
2018-08-07T03:14:51.920Z,1001.34
2018-08-07T03:15:32.267Z,1001.29
2018-08-07T03:16:12.721Z,1001.32
2018-08-07T03:16:53.220Z,1001.35
2018-08-07T03:17:33.618Z,1001.36
2018-08-07T03:18:13.971Z,1001.33
2018-08-07T03:18:54.362Z,1001.37
2018-08-07T03:19:34.752Z,1001.41
2018-08-07T03:20:15.253Z,1001.39
2018-08-07T03:20:55.820Z,1001.37
2018-08-07T03:21:36.284Z,1001.34
2018-08-07T03:22:16.670Z,1001.31
2018-08-07T03:22:57.183Z,1001.37
2018-08-07T03:23:37.446Z,1001.33
2018-08-07T03:24:17.876Z,1001.36
2018-08-07T03:24:58.298Z,1001.35
2018-08-07T03:25:38.676Z,1001.33
2018-08-07T03:26:19.132Z,1001.4
2018-08-07T03:26:59.469Z,1001.4
2018-08-07T03:29:23.486Z,1001.34
2018-08-07T03:30:03.128Z,1001.31
2018-08-07T03:30:43.640Z,1001.3
2018-08-07T03:31:23.916Z,1001.3
2018-08-07T03:32:04.627Z,1001.31
2018-08-07T03:32:45.182Z,1001.32
2018-08-07T03:35:13.386Z,1001.38
2018-08-07T03:35:53.644Z,1001.39
2018-08-07T03:36:34.075Z,1001.36
2018-08-07T03:37:14.474Z,1001.38
2018-08-07T03:37:54.884Z,1001.39
2018-08-07T03:38:35.279Z,1001.37
2018-08-07T03:39:15.684Z,1001.35
2018-08-07T03:39:56.179Z,1001.4
2018-08-07T03:40:36.536Z,1001.39
2018-08-07T03:42:34.001Z,1001.36
2018-08-07T03:43:14.476Z,1001.39
2018-08-07T03:43:54.985Z,1001.38
2018-08-07T03:44:35.263Z,1001.37
2018-08-07T03:45:15.665Z,1001.4
2018-08-07T03:45:56.111Z,1001.42
2018-08-07T03:46:36.550Z,1001.41
2018-08-07T03:47:16.921Z,1001.41
2018-08-07T03:47:57.377Z,1001.44
2018-08-07T03:54:42.778Z,1001.44
2018-08-07T03:55:26.891Z,1001.46
2018-08-07T03:56:07.358Z,1001.46
2018-08-07T03:56:47.768Z,1001.43
2018-08-07T03:57:28.159Z,1001.44
2018-08-07T03:58:08.529Z,1001.43
2018-08-07T03:58:48.946Z,1001.43
2018-08-07T03:59:29.322Z,1001.38
2018-08-07T04:00:09.721Z,1001.36
2018-08-07T04:00:50.129Z,1001.36
2018-08-07T04:01:30.595Z,1001.38
2018-08-07T04:02:11.011Z,1001.36
2018-08-07T04:02:51.497Z,1001.41
2018-08-07T04:03:32.392Z,1001.42
2018-08-07T04:07:41.410Z,1001.42
2018-08-07T04:08:23.557Z,1001.44
2018-08-07T04:09:03.943Z,1001.42
2018-08-07T04:09:44.351Z,1001.45
2018-08-07T04:10:24.744Z,1001.43
2018-08-07T04:11:05.155Z,1001.49
2018-08-07T04:11:45.529Z,1001.48
2018-08-07T04:12:25.926Z,1001.5
2018-08-07T04:13:06.482Z,1001.53
2018-08-07T04:13:46.902Z,1001.47
2018-08-07T04:14:27.276Z,1001.47
2018-08-07T04:15:07.644Z,1001.49
2018-08-07T04:15:48.094Z,1001.47
2018-08-07T04:16:28.461Z,1001.48
2018-08-07T04:17:08.859Z,1001.53
2018-08-07T04:17:49.294Z,1001.49
2018-08-07T04:18:29.708Z,1001.5
2018-08-07T04:19:10.108Z,1001.48
2018-08-07T04:19:50.517Z,1001.48
2018-08-07T04:20:30.907Z,1001.47
2018-08-07T04:21:11.316Z,1001.53
2018-08-07T04:21:51.788Z,1001.51
2018-08-07T04:22:32.133Z,1001.55
2018-08-07T04:23:12.520Z,1001.53
2018-08-07T04:23:52.953Z,1001.49
2018-08-07T04:24:33.358Z,1001.49
2018-08-07T04:25:13.786Z,1001.5
2018-08-07T04:25:54.190Z,1001.48
2018-08-07T04:26:34.569Z,1001.47
2018-08-07T04:27:14.990Z,1001.44
2018-08-07T05:15:13.646Z,1001.55
2018-08-07T05:15:54.355Z,1001.58
2018-08-07T05:16:34.727Z,1001.62
2018-08-07T05:17:15.171Z,1001.63
2018-08-07T05:17:55.591Z,1001.62
2018-08-07T05:18:36.751Z,1001.61
2018-08-07T05:19:18.578Z,1001.57
2018-08-07T05:21:43.198Z,1001.65
2018-08-07T05:22:36.231Z,1001.6
2018-08-07T05:23:30.767Z,1001.67
2018-08-07T05:24:24.253Z,1001.68
2018-08-07T05:25:17.747Z,1001.64
2018-08-07T05:26:16.212Z,1001.68
2018-08-07T05:27:20.223Z,1001.69
2018-08-07T05:28:15.261Z,1001.72
2018-08-07T05:29:10.571Z,1001.71
2018-08-07T05:30:06.644Z,1001.71
2018-08-07T05:30:59.201Z,1001.72
2018-08-07T05:31:51.693Z,1001.7
2018-08-07T05:32:48.909Z,1001.74
2018-08-07T05:33:48.147Z,1001.73
2018-08-07T05:34:45.973Z,1001.76
2018-08-07T05:35:43.334Z,1001.75
2018-08-07T05:36:40.405Z,1001.72
2018-08-07T05:37:32.778Z,1001.72
2018-08-07T05:38:27.632Z,1001.71
2018-08-07T05:39:19.929Z,1001.75
2018-08-07T05:40:12.066Z,1001.72
2018-08-07T05:41:15.316Z,1001.73
2018-08-07T05:44:03.120Z,1001.72
2018-08-07T05:45:00.442Z,1001.74
2018-08-07T05:46:04.965Z,1001.73
2018-08-07T05:47:08.145Z,1001.78
2018-08-07T05:48:14.464Z,1001.73
2018-08-07T05:49:18.280Z,1001.8
2018-08-07T05:51:52.140Z,1001.74
2018-08-07T05:52:32.578Z,1001.74
2018-08-07T05:53:12.953Z,1001.73
2018-08-07T05:53:53.436Z,1001.77
2018-08-07T05:54:33.973Z,1001.78
2018-08-07T05:55:14.540Z,1001.78
2018-08-07T05:55:55.097Z,1001.74
2018-08-07T05:56:35.679Z,1001.73
2018-08-07T05:57:16.051Z,1001.75
2018-08-07T05:57:56.548Z,1001.78
2018-08-07T05:58:37.243Z,1001.77
2018-08-07T05:59:17.385Z,1001.74
2018-08-07T05:59:57.873Z,1001.75
2018-08-07T06:00:40.085Z,1001.77
2018-08-07T06:01:20.312Z,1001.74
2018-08-07T06:02:00.654Z,1001.76
2018-08-07T06:02:41.066Z,1001.73
2018-08-07T06:03:21.535Z,1001.77
2018-08-07T06:04:03.130Z,1001.74
2018-08-07T06:04:43.332Z,1001.74
2018-08-07T06:05:23.751Z,1001.75
2018-08-07T06:06:05.049Z,1001.75
2018-08-07T06:06:46.852Z,1001.76
2018-08-07T06:07:27.359Z,1001.74
2018-08-07T06:08:07.767Z,1001.79
2018-08-07T06:08:49.280Z,1001.76
2018-08-07T06:09:29.798Z,1001.78
2018-08-07T06:10:10.152Z,1001.75
2018-08-07T06:10:50.724Z,1001.78
2018-08-07T06:11:31.072Z,1001.76
2018-08-07T06:12:11.518Z,1001.76
2018-08-07T06:12:52.024Z,1001.81
2018-08-07T06:13:32.881Z,1001.71
2018-08-07T06:14:12.959Z,1001.75
2018-08-07T06:14:54.216Z,1001.72
2018-08-07T06:15:34.925Z,1001.75
2018-08-07T06:16:15.715Z,1001.75
2018-08-07T06:16:56.192Z,1001.73
2018-08-07T06:17:36.696Z,1001.75
2018-08-07T06:18:17.519Z,1001.77
2018-08-07T06:18:59.010Z,1001.75
2018-08-07T06:19:40.213Z,1001.75
2018-08-07T06:20:20.041Z,1001.72
2018-08-07T06:21:00.701Z,1001.76
2018-08-07T06:21:42.197Z,1001.73
2018-08-07T06:22:22.053Z,1001.74
2018-08-07T06:23:02.679Z,1001.73
2018-08-07T06:23:43.785Z,1001.73
2018-08-07T06:24:23.995Z,1001.75
2018-08-07T06:25:04.467Z,1001.78
2018-08-07T06:25:45.026Z,1001.74
2018-08-07T06:26:25.406Z,1001.76
2018-08-07T06:27:05.915Z,1001.76
2018-08-07T06:27:46.636Z,1001.75
2018-08-07T06:28:27.268Z,1001.72
2018-08-07T06:29:07.939Z,1001.74
2018-08-07T06:29:48.331Z,1001.74
2018-08-07T06:30:28.828Z,1001.71
2018-08-07T06:31:09.251Z,1001.75
2018-08-07T06:31:50.855Z,1001.74
2018-08-07T06:32:31.212Z,1001.76
2018-08-07T06:33:11.597Z,1001.78
2018-08-07T06:33:52.080Z,1001.79
2018-08-07T06:34:32.514Z,1001.74
2018-08-07T06:35:13.043Z,1001.77
2018-08-07T06:35:53.411Z,1001.78
2018-08-07T06:36:33.848Z,1001.72
2018-08-07T06:37:16.043Z,1001.74
2018-08-07T06:37:56.641Z,1001.73
2018-08-07T06:38:37.167Z,1001.7
2018-08-07T06:39:17.518Z,1001.7
2018-08-07T06:39:57.953Z,1001.7
2018-08-07T06:40:38.787Z,1001.71
2018-08-07T06:41:19.076Z,1001.68
2018-08-07T06:41:59.477Z,1001.67
2018-08-07T06:42:40.604Z,1001.68
2018-08-07T06:43:20.994Z,1001.67
2018-08-07T06:44:01.490Z,1001.69
2018-08-07T06:44:41.938Z,1001.64
2018-08-07T06:45:22.380Z,1001.63
2018-08-07T06:46:02.937Z,1001.62
2018-08-07T06:46:43.366Z,1001.63
2018-08-07T06:47:23.819Z,1001.64
2018-08-07T06:48:04.306Z,1001.64
2018-08-07T06:48:45.547Z,1001.66
2018-08-07T06:49:25.956Z,1001.64
2018-08-07T06:50:06.328Z,1001.68
2018-08-07T06:50:46.844Z,1001.64
2018-08-07T06:51:27.490Z,1001.63
2018-08-07T06:52:07.793Z,1001.64
2018-08-07T06:52:48.197Z,1001.63
2018-08-07T06:53:28.659Z,1001.62
2018-08-07T06:54:09.121Z,1001.6
2018-08-07T06:54:49.687Z,1001.62
2018-08-07T06:55:30.056Z,1001.61
2018-08-07T06:56:10.577Z,1001.63
2018-08-07T06:56:51.024Z,1001.61
2018-08-07T06:57:31.492Z,1001.57
2018-08-07T06:58:11.851Z,1001.59
2018-08-07T06:58:52.516Z,1001.61
2018-08-07T06:59:32.995Z,1001.6
2018-08-07T07:00:13.899Z,1001.64
2018-08-07T07:00:54.048Z,1001.6
2018-08-07T07:01:34.413Z,1001.6
2018-08-07T07:02:14.983Z,1001.57
2018-08-07T07:02:55.450Z,1001.56
2018-08-07T07:03:35.797Z,1001.55
2018-08-07T07:04:16.237Z,1001.56
2018-08-07T07:04:56.753Z,1001.54
2018-08-07T07:05:37.295Z,1001.56
2018-08-07T07:06:17.792Z,1001.57
2018-08-07T07:06:58.190Z,1001.57
2018-08-07T07:07:38.645Z,1001.56
2018-08-07T07:08:19.482Z,1001.55
2018-08-07T07:08:59.739Z,1001.57
2018-08-07T07:09:40.004Z,1001.52
2018-08-07T07:10:20.765Z,1001.48
2018-08-07T07:11:01.151Z,1001.46
2018-08-07T07:11:41.621Z,1001.52
2018-08-07T07:12:22.145Z,1001.48
2018-08-07T07:13:03.983Z,1001.54
2018-08-07T07:13:44.452Z,1001.49
2018-08-07T07:14:24.899Z,1001.52
2018-08-07T07:15:06.006Z,1001.52
2018-08-07T07:15:46.469Z,1001.58
2018-08-07T07:16:27.019Z,1001.51
2018-08-07T07:17:07.318Z,1001.49
2018-08-07T07:17:47.693Z,1001.51
2018-08-07T07:18:28.110Z,1001.51
2018-08-07T07:19:08.511Z,1001.46
2018-08-07T07:19:48.981Z,1001.47
2018-08-07T07:20:29.418Z,1001.43
2018-08-07T07:21:09.887Z,1001.48
2018-08-07T07:21:50.387Z,1001.45
2018-08-07T07:22:30.760Z,1001.47
2018-08-07T07:23:11.208Z,1001.45
2018-08-07T07:23:51.719Z,1001.45
2018-08-07T07:24:32.078Z,1001.44
2018-08-07T07:27:03.841Z,1001.45
2018-08-07T07:27:57.432Z,1001.43
2018-08-07T07:28:51.480Z,1001.45
2018-08-07T07:29:46.296Z,1001.44
2018-08-07T07:30:39.709Z,1001.45
2018-08-07T07:33:12.171Z,1001.43
2018-08-07T07:34:25.585Z,1001.4
2018-08-07T07:35:26.801Z,1001.38
2018-08-07T07:39:54.823Z,1001.34
2018-08-07T07:40:35.221Z,1001.34
2018-08-07T07:41:15.642Z,1001.33
2018-08-07T07:41:56.843Z,1001.35
2018-08-07T07:42:36.591Z,1001.35
2018-08-07T07:43:17.080Z,1001.29
2018-08-07T07:43:57.486Z,1001.35
2018-08-07T07:44:37.883Z,1001.34
2018-08-07T07:45:18.337Z,1001.34
2018-08-07T07:45:58.743Z,1001.33
2018-08-07T07:46:39.182Z,1001.32
2018-08-07T07:47:19.548Z,1001.32
2018-08-07T07:47:59.972Z,1001.33
2018-08-07T07:48:40.358Z,1001.32
2018-08-07T07:49:20.810Z,1001.31
2018-08-07T07:50:01.238Z,1001.33
2018-08-07T07:50:41.659Z,1001.29
2018-08-07T07:51:22.130Z,1001.31
2018-08-07T07:52:02.530Z,1001.28
2018-08-07T07:52:42.925Z,1001.29
2018-08-07T07:53:23.637Z,1001.25
2018-08-07T07:54:04.338Z,1001.27
2018-08-07T07:54:44.836Z,1001.24
2018-08-07T07:55:25.254Z,1001.25
2018-08-07T07:56:05.927Z,1001.24
2018-08-07T07:56:46.413Z,1001.27
2018-08-07T07:57:26.875Z,1001.29
2018-08-07T07:58:07.335Z,1001.28
2018-08-07T07:58:47.847Z,1001.25
2018-08-07T07:59:28.336Z,1001.25
2018-08-07T08:00:09.186Z,1001.28
2018-08-07T08:00:49.854Z,1001.24
2018-08-07T08:01:30.437Z,1001.26
2018-08-07T08:02:10.834Z,1001.27
2018-08-07T08:02:51.597Z,1001.26
2018-08-07T08:03:32.295Z,1001.25
2018-08-07T08:04:12.702Z,1001.28
2018-08-07T08:04:53.290Z,1001.29
2018-08-07T08:05:33.709Z,1001.26
2018-08-07T08:06:14.194Z,1001.27
2018-08-07T08:06:54.580Z,1001.27
2018-08-07T08:07:36.831Z,1001.26
2018-08-07T08:08:18.895Z,1001.26
2018-08-07T08:09:00.079Z,1001.28
2018-08-07T08:09:41.013Z,1001.31
2018-08-07T08:10:21.462Z,1001.28
2018-08-07T08:11:02.981Z,1001.33
2018-08-07T08:13:12.862Z,1001.26
2018-08-07T08:14:04.811Z,1001.36
2018-08-07T08:18:25.726Z,1001.24
2018-08-07T08:19:16.333Z,1001.19
2018-08-07T08:19:56.344Z,1001.18
2018-08-07T08:20:37.246Z,1001.19
2018-08-07T08:21:17.405Z,1001.11
2018-08-07T08:21:57.874Z,1001.2
2018-08-07T08:22:39.294Z,1001.23
2018-08-07T08:23:18.948Z,1001.14
2018-08-07T08:23:59.391Z,1001.13
2018-08-07T08:24:39.792Z,1001.11
2018-08-07T08:25:20.220Z,1001.11
2018-08-07T08:26:01.037Z,1001.08
2018-08-07T08:26:41.408Z,1001.14
2018-08-07T08:27:21.839Z,1001.1
2018-08-07T08:28:02.275Z,1001.15
2018-08-07T08:28:42.651Z,1001.13
2018-08-07T08:29:23.327Z,1001.08
2018-08-07T08:30:03.730Z,1001.1
2018-08-07T08:30:43.979Z,1001.12
2018-08-07T08:31:24.395Z,1001.13
2018-08-07T08:32:04.849Z,1001.13
2018-08-07T08:32:45.310Z,1001.09
2018-08-07T08:33:25.876Z,1001.11
2018-08-07T08:34:06.252Z,1001.1
2018-08-07T08:34:46.660Z,1001.1
2018-08-07T08:35:27.063Z,1001.08
2018-08-07T08:36:07.423Z,1001.09
2018-08-07T08:36:48.028Z,1001.09
2018-08-07T08:37:28.493Z,1001.07
2018-08-07T08:38:09.026Z,1001.06
2018-08-07T08:38:49.490Z,1001.09
2018-08-07T08:39:30.803Z,1001.06
2018-08-07T08:40:11.566Z,1001.08
2018-08-07T08:40:51.962Z,1001.08
2018-08-07T08:41:32.428Z,1001.08
2018-08-07T08:42:12.831Z,1001.1
2018-08-07T08:42:53.325Z,1001.04
2018-08-07T08:43:33.721Z,1001.02
2018-08-07T08:44:14.180Z,1001
2018-08-07T08:44:54.543Z,1001.03
2018-08-07T08:45:35.013Z,1000.98
2018-08-07T08:46:15.400Z,1000.97
2018-08-07T08:46:55.862Z,1000.95
2018-08-07T08:47:36.413Z,1000.95
2018-08-07T08:48:16.948Z,1000.95
2018-08-07T08:48:57.262Z,1000.95
2018-08-07T08:49:37.741Z,1000.93
2018-08-07T08:50:18.196Z,1000.93
2018-08-07T08:50:58.619Z,1000.9
2018-08-07T08:51:39.127Z,1000.93
2018-08-07T08:52:19.546Z,1000.85
2018-08-07T08:52:59.954Z,1000.89
2018-08-07T08:53:40.335Z,1000.9
2018-08-07T08:54:20.735Z,1000.91
2018-08-07T08:55:01.173Z,1000.91
2018-08-07T08:55:41.665Z,1000.88
2018-08-07T08:56:21.970Z,1000.92
2018-08-07T08:57:02.405Z,1000.92
2018-08-07T08:57:42.844Z,1000.88
2018-08-07T08:58:23.421Z,1000.92
2018-08-07T08:59:03.806Z,1000.9
2018-08-07T08:59:44.345Z,1000.9
2018-08-07T09:00:24.808Z,1000.89
2018-08-07T09:01:05.324Z,1000.85
2018-08-07T09:01:46.056Z,1000.82
2018-08-07T09:02:26.393Z,1000.82
2018-08-07T09:03:07.449Z,1000.87
2018-08-07T09:03:47.591Z,1000.79
2018-08-07T09:04:28.049Z,1000.82
2018-08-07T09:05:08.403Z,1000.79
2018-08-07T09:05:48.831Z,1000.8
2018-08-07T09:06:29.228Z,1000.81
2018-08-07T09:07:09.689Z,1000.8
2018-08-07T09:07:50.146Z,1000.78
2018-08-07T09:08:30.447Z,1000.78
2018-08-07T09:09:10.954Z,1000.73
2018-08-07T09:09:51.368Z,1000.71
2018-08-07T09:10:31.926Z,1000.72
2018-08-07T09:11:12.201Z,1000.68
2018-08-07T09:11:52.781Z,1000.65
2018-08-07T09:12:33.380Z,1000.72
2018-08-07T09:13:13.846Z,1000.71
2018-08-07T09:13:54.320Z,1000.72
2018-08-07T09:14:34.799Z,1000.73
2018-08-07T09:15:15.199Z,1000.71
2018-08-07T09:15:55.614Z,1000.7
2018-08-07T09:16:36.112Z,1000.7
2018-08-07T09:17:16.545Z,1000.68
2018-08-07T09:17:57.050Z,1000.67
2018-08-07T09:18:37.428Z,1000.67
2018-08-07T09:19:17.796Z,1000.66
2018-08-07T09:19:58.231Z,1000.67
2018-08-07T09:20:39.299Z,1000.61
2018-08-07T09:21:19.861Z,1000.63
2018-08-07T09:22:00.211Z,1000.59
2018-08-07T09:22:40.578Z,1000.59
2018-08-07T09:23:21.043Z,1000.62
2018-08-07T09:24:01.445Z,1000.65
2018-08-07T09:24:41.800Z,1000.62
2018-08-07T09:25:22.271Z,1000.64
2018-08-07T09:26:02.709Z,1000.62
2018-08-07T09:26:43.138Z,1000.64
2018-08-07T09:27:23.570Z,1000.63
2018-08-07T09:28:03.940Z,1000.62
2018-08-07T09:28:44.296Z,1000.58
2018-08-07T09:29:24.799Z,1000.61
2018-08-07T09:30:05.185Z,1000.6
2018-08-07T09:30:45.627Z,1000.61
2018-08-07T09:31:26.059Z,1000.61
2018-08-07T09:32:06.467Z,1000.57
2018-08-07T09:32:46.877Z,1000.52
2018-08-07T09:33:27.387Z,1000.59
2018-08-07T09:34:07.770Z,1000.55
2018-08-07T09:34:48.225Z,1000.51
2018-08-07T09:35:28.651Z,1000.51
2018-08-07T09:36:09.063Z,1000.47
2018-08-07T09:36:49.429Z,1000.47
2018-08-07T09:37:29.858Z,1000.44
2018-08-07T09:38:10.314Z,1000.46
2018-08-07T09:38:50.901Z,1000.43
2018-08-07T09:39:31.292Z,1000.45
2018-08-07T09:40:12.307Z,1000.46
2018-08-07T09:40:52.550Z,1000.42
2018-08-07T09:41:32.990Z,1000.42
2018-08-07T09:42:13.595Z,1000.37
2018-08-07T09:42:53.956Z,1000.34
2018-08-07T09:43:34.664Z,1000.37
2018-08-07T09:44:15.081Z,1000.37
2018-08-07T09:44:55.662Z,1000.35
2018-08-07T09:45:36.065Z,1000.36
2018-08-07T09:46:16.652Z,1000.37
2018-08-07T09:46:57.025Z,1000.38
2018-08-07T09:47:37.410Z,1000.36
2018-08-07T09:48:17.889Z,1000.35
2018-08-07T09:48:58.386Z,1000.35
2018-08-07T09:49:38.865Z,1000.29
2018-08-07T09:50:19.336Z,1000.24
2018-08-07T09:50:59.897Z,1000.19
2018-08-07T09:51:40.447Z,1000.16
2018-08-07T09:52:21.691Z,1000.2
2018-08-07T09:53:02.795Z,1000.25
2018-08-07T09:53:43.275Z,1000.28
2018-08-07T09:54:26.925Z,1000.3
2018-08-07T09:57:08.896Z,1000.37
2018-08-07T09:58:03.186Z,1000.32
2018-08-07T09:58:57.021Z,1000.32
2018-08-07T09:59:51.249Z,1000.38
2018-08-07T10:00:44.676Z,1000.28
2018-08-07T10:01:37.334Z,1000.32
2018-08-07T10:02:33.850Z,1000.41
2018-08-07T10:03:38.293Z,1000.36
2018-08-07T10:06:22.187Z,1000.29
2018-08-07T10:07:27.117Z,1000.24
2018-08-07T10:08:28.251Z,1000.01
2018-08-07T10:20:54.338Z,1000.32
2018-08-07T10:21:51.275Z,1000.26
2018-08-07T10:22:50.784Z,1000.31
2018-08-07T10:23:55.010Z,1000.29
2018-08-07T10:24:53.665Z,1000.31
2018-08-07T10:25:55.682Z,1000.22
2018-08-07T10:26:53.061Z,1000.23
2018-08-07T10:27:54.971Z,1000.24
2018-08-07T10:29:00.165Z,1000.19
2018-08-07T11:07:32.727Z,999.96
2018-08-07T11:08:26.765Z,999.94
2018-08-07T11:09:21.243Z,999.93
2018-08-07T11:10:26.888Z,999.92
2018-08-07T11:11:22.347Z,999.96
2018-08-07T11:12:17.571Z,999.92
2018-08-07T11:13:11.823Z,999.9
2018-08-07T11:14:05.547Z,999.85
2018-08-07T11:14:58.367Z,999.89
2018-08-07T11:16:29.563Z,999.89
2018-08-07T11:17:28.152Z,999.89
2018-08-07T11:18:32.233Z,999.9
2018-08-07T11:21:14.727Z,999.86
2018-08-07T11:22:11.024Z,999.89
2018-08-07T11:26:08.312Z,999.89
2018-08-07T11:27:06.589Z,999.74
2018-08-07T11:28:04.380Z,999.76
2018-08-07T11:29:00.428Z,999.8
2018-08-07T11:30:17.746Z,999.79
2018-08-07T11:31:45.088Z,999.81
2018-08-07T11:36:12.058Z,999.8
2018-08-07T11:51:02.730Z,999.64
2018-08-07T11:51:42.350Z,999.64
2018-08-07T11:52:22.766Z,999.62
2018-08-07T11:53:03.385Z,999.57
2018-08-07T11:53:45.492Z,999.61
2018-08-07T11:54:25.957Z,999.64
2018-08-07T11:55:06.513Z,999.66
2018-08-07T11:55:47.138Z,999.59
2018-08-07T11:56:27.888Z,999.65
2018-08-07T11:57:08.368Z,999.62
2018-08-07T11:57:49.330Z,999.58
2018-08-07T11:58:29.946Z,999.62
2018-08-07T11:59:10.751Z,999.65
2018-08-07T11:59:51.359Z,999.61
2018-08-07T12:00:31.726Z,999.64
2018-08-07T12:01:12.409Z,999.62
2018-08-07T12:01:57.024Z,999.6
2018-08-07T12:02:39.189Z,999.65
2018-08-07T12:03:20.800Z,999.58
2018-08-07T12:04:01.275Z,999.55
2018-08-07T12:04:41.677Z,999.56
2018-08-07T12:05:22.692Z,999.58
2018-08-07T12:06:03.177Z,999.61
2018-08-07T12:06:43.649Z,999.59
2018-08-07T12:07:24.088Z,999.63
2018-08-07T12:08:04.554Z,999.6
2018-08-07T12:08:45.189Z,999.6
2018-08-07T12:09:25.645Z,999.56
2018-08-07T12:10:06.083Z,999.54
2018-08-07T12:10:47.665Z,999.59
2018-08-07T12:11:32.132Z,999.6